Time;durP1;ratioP1;P1;durP2;ratioP2;P2;SDS_P1;SDS_P2;PMS_P1;PMS_P2;Temp;Humidity;BMP_temperature;BMP_pressure;BME280_temperature;BME280_humidity;BME280_pressure;Samples;Min_cycle;Max_cycle;Signal;HPM_P1;HPM_P2
2022/05/23 00:02:02;0.00;0.00;0.62;0.00;0.00;0.62;;;;;19.30;1.00;;;;;;2272472;61;1559;-85
2022/05/23 00:04:31;80475.00;0.27;139.86;0.00;0.00;0.62;;;;;19.30;1.00;;;;;;2272713;61;1408;-85
2022/05/23 00:06:58;204409.00;0.68;353.51;68614.00;0.23;119.37;;;;;19.10;1.00;;;;;;2272570;61;1187;-85
2022/05/23 00:09:26;300040.00;1.00;517.99;50708.00;0.17;88.41;;;;;19.00;1.00;;;;;;2272661;61;1010;-84
2022/05/23 00:11:54;905806.00;3.02;1566.32;125149.00;0.42;216.96;;;;;19.00;1.00;;;;;;2272717;61;1266;-87
2022/05/23 00:14:21;931351.00;3.10;1611.25;88159.00;0.29;153.13;;;;;19.10;1.00;;;;;;2272510;61;1575;-85
2022/05/23 00:16:50;688761.00;2.30;1187.75;10713.00;0.04;19.18;;;;;19.10;1.00;;;;;;2272471;61;1927;-87
2022/05/23 00:19:19;769790.00;2.57;1328.49;27930.00;0.09;49.00;;;;;19.00;1.00;;;;;;2272713;61;1032;-87
2022/05/23 00:21:47;1195554.00;3.99;2082.18;116252.00;0.39;201.62;;;;;19.20;1.00;;;;;;2272714;61;1077;-86
2022/05/23 00:24:16;322321.00;1.07;556.29;9834.00;0.03;17.66;;;;;19.00;1.00;;;;;;2272540;61;1334;-86
2022/05/23 00:26:46;492594.00;1.64;849.07;8201.00;0.03;14.83;;;;;19.00;1.00;;;;;;2272408;61;1126;-83
2022/05/23 00:29:13;269845.00;0.90;466.08;11678.00;0.04;20.86;;;;;18.80;1.00;;;;;;2272422;61;1103;-85
2022/05/23 00:35:17;335454.00;1.12;578.86;0.00;0.00;0.62;;;;;18.80;1.00;;;;;;2272413;61;1145;-84
2022/05/23 00:37:14;0.00;0.00;0.62;0.00;0.00;0.62;;;;;18.70;1.00;;;;;;2272640;61;2010;-87
2022/05/23 00:39:41;347873.00;1.16;600.21;0.00;0.00;0.62;;;;;18.40;1.00;;;;;;2272649;61;1668;-87
2022/05/23 00:44:58;143783.00;0.48;249.09;0.00;0.00;0.62;;;;;18.30;1.00;;;;;;2268487;61;1566;-85
2022/05/23 00:47:27;356822.00;1.19;615.59;0.00;0.00;0.62;;;;;18.20;1.00;;;;;;2272458;61;1002;-86
2022/05/23 00:49:55;1042790.00;3.48;1808.41;194244.00;0.65;336.02;;;;;18.20;1.00;;;;;;2272445;61;2199;-85
2022/05/23 00:52:40;489226.00;1.63;843.28;10639.00;0.04;19.06;;;;;17.80;1.00;;;;;;2272630;61;941;-86
2022/05/23 00:55:16;528287.00;1.76;910.54;0.00;0.00;0.62;;;;;17.40;1.00;;;;;;2272220;61;1519;-85
2022/05/23 00:57:47;451433.00;1.50;778.25;0.00;0.00;0.62;;;;;17.30;1.00;;;;;;2272248;61;1915;-86
2022/05/23 01:00:15;479035.00;1.60;825.74;0.00;0.00;0.62;;;;;17.60;1.00;;;;;;2272627;61;1089;-85
2022/05/23 01:22:52;1153466.00;3.84;2006.31;0.00;0.00;0.62;;;;;17.80;1.00;;;;;;2281099;55;3650;-87
2022/05/23 01:32:53;1157292.00;3.86;2013.19;101862.00;0.34;176.79;;;;;17.60;1.00;;;;;;1571156;56;3548;-87
2022/05/23 01:40:19;1197792.00;3.99;2086.23;61102.00;0.20;106.38;;;;;17.80;1.00;;;;;;1987412;40;3399;-89
2022/05/23 01:45:19;1128325.00;3.76;1961.15;81608.00;0.27;141.81;;;;;18.00;1.00;;;;;;2269994;61;1349;-89
2022/05/23 01:47:47;554884.00;1.85;956.38;8213.00;0.03;14.85;;;;;18.10;1.00;;;;;;2268255;61;1128;-88
2022/05/23 01:52:48;121352.00;0.40;210.41;0.00;0.00;0.62;;;;;17.50;1.00;;;;;;2273873;61;1439;-89
2022/05/23 01:57:45;304605.00;1.02;525.84;0.00;0.00;0.62;;;;;17.50;1.00;;;;;;2274083;61;1974;-88
2022/05/23 02:05:30;231635.00;0.77;400.36;0.00;0.00;0.62;;;;;18.00;1.00;;;;;;2270625;61;1185;-90
2022/05/23 02:10:29;56866.00;0.19;99.06;0.00;0.00;0.62;;;;;18.10;1.00;;;;;;2273701;61;1297;-88
2022/05/23 02:13:00;25093.00;0.08;44.09;0.00;0.00;0.62;;;;;18.20;1.00;;;;;;2272303;61;1306;-89
2022/05/23 02:17:58;378348.00;1.26;652.59;0.00;0.00;0.62;;;;;17.80;1.00;;;;;;2277558;61;1895;-88
2022/05/23 02:20:26;19046.00;0.06;33.62;0.00;0.00;0.62;;;;;18.00;1.00;;;;;;2276207;61;1757;-87
2022/05/23 02:22:53;133250.00;0.44;230.93;54365.00;0.18;94.73;;;;;17.80;1.00;;;;;;2276189;61;1628;-88
2022/05/23 02:25:20;0.00;0.00;0.62;0.00;0.00;0.62;;;;;17.80;1.00;;;;;;2276319;61;1047;-88
2022/05/23 02:27:48;52110.00;0.17;90.84;0.00;0.00;0.62;;;;;17.80;1.00;;;;;;2276322;61;918;-89
2022/05/23 02:30:15;39147.00;0.13;68.41;0.00;0.00;0.62;;;;;18.20;1.00;;;;;;2276316;61;979;-88
2022/05/23 02:35:13;322033.00;1.07;555.79;0.00;0.00;0.62;;;;;18.00;1.00;;;;;;2309120;56;3600;-87
2022/05/23 02:40:10;127421.00;0.42;220.88;25797.00;0.09;45.31;;;;;17.90;1.00;;;;;;2273906;61;1392;-87
2022/05/23 02:42:37;0.00;0.00;0.62;0.00;0.00;0.62;;;;;17.90;1.00;;;;;;2272091;61;1672;-88
2022/05/23 02:45:07;33121.00;0.11;57.98;0.00;0.00;0.62;;;;;17.80;1.00;;;;;;2271954;61;977;-87
2022/05/23 02:47:35;101569.00;0.34;176.28;0.00;0.00;0.62;;;;;17.80;1.00;;;;;;2272159;61;1336;-88
2022/05/23 02:50:02;93010.00;0.31;161.50;0.00;0.00;0.62;;;;;18.00;1.00;;;;;;2301621;56;3742;-87
2022/05/23 02:54:56;275328.00;0.92;475.50;0.00;0.00;0.62;;;;;17.90;1.00;;;;;;2269681;61;1413;-85
2022/05/23 03:04:51;390230.00;1.30;673.01;0.00;0.00;0.62;;;;;17.60;1.00;;;;;;2277657;61;1421;-89
2022/05/23 03:07:18;660506.00;2.20;1138.82;23524.00;0.08;41.37;;;;;17.60;1.00;;;;;;2276199;61;1115;-91
2022/05/23 03:09:45;1024357.00;3.41;1775.66;113958.00;0.38;197.66;;;;;17.50;1.00;;;;;;2299474;56;3800;-89
2022/05/23 03:12:13;553246.00;1.84;953.56;1853.00;0.01;3.83;;;;;17.50;1.00;;;;;;2276189;61;1191;-87
2022/05/23 03:19:42;334119.00;1.11;576.57;43599.00;0.15;76.11;;;;;17.20;1.00;;;;;;2277097;55;3588;-88
2022/05/23 03:27:42;37739.00;0.13;65.98;0.00;0.00;0.62;;;;;17.30;1.00;;;;;;2276095;61;694;-88
2022/05/23 03:32:40;175408.00;0.58;303.58;0.00;0.00;0.62;;;;;17.40;1.00;;;;;;2278118;39;3499;-90
2022/05/23 03:35:08;786453.00;2.62;1357.51;166588.00;0.56;288.39;;;;;17.50;1.00;;;;;;2280151;61;1811;-87
2022/05/23 03:37:37;554155.00;1.85;955.12;3470.00;0.01;6.63;;;;;17.90;1.00;;;;;;2280150;61;1931;-86
2022/05/23 03:40:05;1168833.00;3.90;2033.97;86844.00;0.29;150.86;;;;;17.90;1.00;;;;;;2280140;61;1102;-89
2022/05/23 03:42:32;784947.00;2.62;1354.88;19464.00;0.06;34.34;;;;;18.00;1.00;;;;;;2280176;61;1281;-88
2022/05/23 03:44:59;698357.00;2.33;1204.39;26829.00;0.09;47.09;;;;;17.90;1.00;;;;;;2280179;61;1134;-89
2022/05/23 03:47:26;936785.00;3.12;1620.82;38316.00;0.13;66.97;;;;;18.10;1.00;;;;;;2280105;61;879;-87
2022/05/23 03:49:53;377165.00;1.26;650.55;14226.00;0.05;25.27;;;;;18.10;1.00;;;;;;2280222;61;946;-88
2022/05/23 03:52:21;636531.00;2.12;1097.34;0.00;0.00;0.62;;;;;18.30;1.00;;;;;;2280096;61;1139;-87
2022/05/23 03:54:49;662422.00;2.21;1142.13;21668.00;0.07;38.16;;;;;18.30;1.00;;;;;;2280037;61;1581;-87
2022/05/23 04:02:20;802053.00;2.67;1384.70;44324.00;0.15;77.37;;;;;18.10;1.00;;;;;;2270687;61;1279;-88
2022/05/23 04:04:48;501619.00;1.67;864.61;8602.00;0.03;15.53;;;;;17.40;1.00;;;;;;2268528;61;1333;-89
2022/05/23 04:07:14;232950.00;0.78;402.62;0.00;0.00;0.62;;;;;16.90;1.00;;;;;;2268570;61;1022;-87
2022/05/23 04:09:42;536098.00;1.79;924.00;21372.00;0.07;37.65;;;;;16.90;1.00;;;;;;2268677;61;2087;-89
2022/05/23 04:24:33;341988.00;1.14;590.09;0.00;0.00;0.62;;;;;17.30;1.00;;;;;;2275175;61;1323;-87
2022/05/23 04:29:28;183747.00;0.61;317.94;0.00;0.00;0.62;;;;;17.30;1.00;;;;;;2274475;61;1376;-88
2022/05/23 04:54:20;1642030.00;5.47;2913.34;149024.00;0.50;258.13;;;;;18.50;1.00;;;;;;2270387;61;1412;-88
2022/05/23 05:09:12;1603488.00;5.34;2839.41;123694.00;0.41;214.45;;;;;18.80;1.00;;;;;;2270820;61;1311;-91
2022/05/23 05:14:13;1749528.00;5.83;3122.07;40758.00;0.14;71.20;;;;;18.90;1.00;;;;;;2266851;61;1353;-90
2022/05/23 05:16:40;785325.00;2.62;1355.54;23573.00;0.08;41.46;;;;;18.80;1.00;;;;;;2265205;61;1075;-91
2022/05/23 06:44:11;2111825.00;7.04;3856.52;144977.00;0.48;251.15;;;;;25.80;1.00;;;;;;2286742;61;1241;-90
2022/05/23 06:51:41;1860095.00;6.20;3340.90;60605.00;0.20;105.52;;;;;26.80;1.00;;;;;;2278838;61;1028;-91
2022/05/23 06:54:08;641810.00;2.14;1106.47;72679.00;0.24;126.39;;;;;27.40;1.00;;;;;;2276758;61;1601;-90
2022/05/23 06:56:35;117605640.00;392.02;65889324.00;68615.00;0.23;119.37;;;;;27.60;1.00;;;;;;2276325;61;1527;-88
2022/05/23 06:59:02;310136.00;1.03;535.34;72082.00;0.24;125.36;;;;;27.40;1.00;;;;;;2276251;61;2000;-88
2022/05/23 07:01:31;213224.00;0.71;368.68;75550.00;0.25;131.35;;;;;27.80;1.00;;;;;;2276274;61;1099;-88
2022/05/23 07:03:58;189482.00;0.63;327.82;72073.00;0.24;125.34;;;;;27.70;1.00;;;;;;2276323;61;1247;-86
2022/05/23 07:12:24;379875.00;1.27;655.21;15721.00;0.05;27.86;;;;;28.30;1.00;;;;;;2276216;61;973;-89
2022/05/23 07:14:52;505963.00;1.69;872.09;0.00;0.00;0.62;;;;;27.80;1.00;;;;;;2276218;61;1447;-89
2022/05/23 07:17:21;500424.00;1.67;862.55;0.00;0.00;0.62;;;;;27.80;1.00;;;;;;2276267;61;1126;-88
2022/05/23 07:19:49;504316.00;1.68;869.25;0.00;0.00;0.62;;;;;29.00;1.00;;;;;;2276116;61;2012;-87
2022/05/23 07:22:16;370560.00;1.24;639.20;0.00;0.00;0.62;;;;;30.30;1.00;;;;;;2276298;61;936;-89
2022/05/23 07:24:44;304609.00;1.02;525.84;12698.00;0.04;22.62;;;;;30.10;1.00;;;;;;2276255;61;1306;-88
2022/05/23 07:27:12;864438.00;2.88;1493.75;49240.00;0.16;85.87;;;;;29.70;1.00;;;;;;2276165;61;1122;-88
2022/05/23 07:29:40;550659.00;1.84;949.10;844.00;0.00;2.08;;;;;29.10;1.00;;;;;;2276249;61;1553;-88
2022/05/23 07:32:08;526121.00;1.75;906.81;13795.00;0.05;24.52;;;;;28.60;1.00;;;;;;2276936;61;920;-88
2022/05/23 07:34:37;468506.00;1.56;807.62;0.00;0.00;0.62;;;;;27.90;1.00;;;;;;2276869;61;1614;-89
2022/05/23 07:37:04;554162.00;1.85;955.13;13781.00;0.05;24.50;;;;;27.60;1.00;;;;;;2276883;61;1011;-89
2022/05/23 07:39:31;491717.00;1.64;847.56;7154.00;0.02;13.02;;;;;27.80;1.00;;;;;;2276841;61;2357;-89
2022/05/23 07:41:58;527047.00;1.76;908.40;14298.00;0.05;25.39;;;;;27.90;1.00;;;;;;2276919;61;1544;-87
2022/05/23 07:44:25;632804.00;2.11;1090.90;73083.00;0.24;127.09;;;;;27.60;1.00;;;;;;2276811;61;1249;-88
2022/05/23 07:46:53;1194251.00;3.98;2079.83;17703.00;0.06;31.29;;;;;27.60;1.00;;;;;;2276838;61;1114;-90
2022/05/23 07:49:20;569739.00;1.90;982.00;1480.00;0.00;3.19;;;;;27.50;1.00;;;;;;2269569;61;919;-90
2022/05/23 07:51:48;492398.00;1.64;848.74;0.00;0.00;0.62;;;;;27.40;1.00;;;;;;2276672;61;1015;-86
2022/05/23 08:02:14;227311.00;0.76;392.92;0.00;0.00;0.62;;;;;28.70;1.00;;;;;;2285161;60;616;-88
2022/05/23 08:04:41;201125.00;0.67;347.86;71775.00;0.24;124.83;;;;;28.90;1.00;;;;;;2285032;60;1336;-89
2022/05/23 08:07:10;172060.00;0.57;297.81;68685.00;0.23;119.49;;;;;29.30;1.00;;;;;;2284942;60;1089;-88
2022/05/23 08:09:38;576956.00;1.92;994.45;86059.00;0.29;149.50;;;;;29.30;1.00;;;;;;2284930;60;1194;-89
2022/05/23 08:12:07;208457.00;0.69;360.48;74519.00;0.25;129.57;;;;;29.50;1.00;;;;;;2285034;60;1042;-88
2022/05/23 08:14:34;407412.00;1.36;702.55;74815.00;0.25;130.08;;;;;29.60;1.00;;;;;;2320918;55;3836;-89
2022/05/23 08:19:30;773510.00;2.58;1334.96;79103.00;0.26;137.49;;;;;29.50;1.00;;;;;;2282472;60;1968;-89
2022/05/23 08:24:33;1059237.00;3.53;1837.68;118041.00;0.39;204.70;;;;;29.30;1.00;;;;;;2298759;55;3750;-89
2022/05/23 08:27:00;119976288.00;399.92;69958472.00;127899.00;0.43;221.71;;;;;29.50;1.00;;;;;;2292871;60;1764;-89
2022/05/23 08:29:27;692152.00;2.31;1193.63;69070.00;0.23;120.15;;;;;29.60;1.00;;;;;;2293139;60;1090;-91
2022/05/23 08:31:54;418995.00;1.40;722.46;70713.00;0.24;122.99;;;;;29.80;1.00;;;;;;2292889;60;1006;-90
2022/05/23 08:52:05;341975.00;1.14;590.07;70847.00;0.24;123.22;;;;;30.50;1.00;;;;;;2286616;60;1212;-90
2022/05/23 08:54:44;401173.00;1.34;691.82;71593.00;0.24;124.51;;;;;30.30;1.00;;;;;;2304377;39;3655;-90
2022/05/23 09:27:27;552333.00;1.84;951.98;0.00;0.00;0.62;;;;;28.70;1.00;;;;;;2309933;40;3492;-89
2022/05/23 09:34:57;373034.00;1.24;643.45;0.00;0.00;0.62;;;;;28.80;1.00;;;;;;2286435;60;1405;-90
2022/05/23 09:39:56;810016.00;2.70;1398.60;0.00;0.00;0.62;;;;;29.00;1.00;;;;;;2281898;60;1954;-91
2022/05/23 09:52:29;1579517.00;5.27;2793.66;78696.00;0.26;136.78;;;;;29.70;1.00;;;;;;2353849;55;3680;-88
2022/05/23 10:02:34;1597707.00;5.33;2828.36;81633.00;0.27;141.86;;;;;28.40;1.00;;;;;;2282852;61;1373;-90
2022/05/23 10:17:33;398235.00;1.33;686.77;0.00;0.00;0.62;;;;;28.30;1.00;;;;;;2292222;55;3654;-90
2022/05/23 10:25:06;804712.00;2.68;1389.34;68376.00;0.23;118.95;;;;;28.50;1.00;;;;;;2273395;61;1164;-88
2022/05/23 10:27:45;266350.00;0.89;460.07;62907.00;0.21;109.50;;;;;28.50;1.00;;;;;;2272352;61;1133;-87
2022/05/23 10:30:18;348442.00;1.16;601.18;75364.00;0.25;131.03;;;;;28.40;1.00;;;;;;2272359;61;1045;-88
2022/05/23 10:32:50;270870.00;0.90;467.84;70582.00;0.24;122.77;;;;;28.40;1.00;;;;;;2272316;61;1327;-87
2022/05/23 10:35:22;96430.00;0.32;167.41;0.00;0.00;0.62;;;;;28.30;1.00;;;;;;2272210;61;1267;-88
2022/05/23 10:37:50;36799.00;0.12;64.35;0.00;0.00;0.62;;;;;28.10;1.00;;;;;;2272339;61;1041;-88
2022/05/23 10:43:13;202450.00;0.67;350.14;23800.00;0.08;41.85;;;;;27.80;1.00;;;;;;2272310;61;1319;-87
2022/05/23 10:45:47;12047.00;0.04;21.50;0.00;0.00;0.62;;;;;27.50;1.00;;;;;;2272307;61;1089;-89
2022/05/23 10:48:34;297124.00;0.99;512.98;0.00;0.00;0.62;;;;;27.20;1.00;;;;;;2272334;61;1104;-89
2022/05/23 10:51:12;65391.00;0.22;113.80;0.00;0.00;0.62;;;;;26.90;1.00;;;;;;2272173;61;1046;-87
2022/05/23 10:53:56;74717.00;0.25;129.91;0.00;0.00;0.62;;;;;26.80;1.00;;;;;;2272205;61;1399;-87
2022/05/23 10:56:36;499313.00;1.66;860.64;193736.00;0.65;335.14;;;;;26.80;1.00;;;;;;2272228;61;989;-89
2022/05/23 10:59:09;159419.00;0.53;276.04;40569.00;0.14;70.87;;;;;26.70;1.00;;;;;;2272247;61;1910;-89
2022/05/23 11:01:51;221293.00;0.74;382.57;0.00;0.00;0.62;;;;;26.70;1.00;;;;;;2272253;61;1552;-88
2022/05/23 11:04:35;228451.00;0.76;394.88;0.00;0.00;0.62;;;;;26.60;1.00;;;;;;2272161;61;1584;-89
2022/05/23 11:07:20;15783.00;0.05;27.97;0.00;0.00;0.62;;;;;26.20;1.00;;;;;;2272957;61;1077;-88
2022/05/23 11:09:55;0.00;0.00;0.62;0.00;0.00;0.62;;;;;26.10;1.00;;;;;;2272972;61;967;-87
2022/05/23 11:12:31;405594.00;1.35;699.42;85329.00;0.28;148.24;;;;;25.70;1.00;;;;;;2273054;61;1577;-90
2022/05/23 11:15:27;473813.00;1.58;816.75;171954.00;0.57;297.63;;;;;25.00;1.00;;;;;;2273123;61;1111;-88
2022/05/23 11:18:04;386656.00;1.29;666.87;0.00;0.00;0.62;;;;;24.50;1.00;;;;;;2288124;56;3771;-89
2022/05/23 11:23:20;1019920.00;3.40;1767.78;822.00;0.00;2.04;;;;;23.80;1.00;;;;;;1996581;55;3726;-87
2022/05/23 11:34:02;22508.00;0.08;39.61;0.00;0.00;0.62;;;;;21.20;7.00;;;;;;2285113;60;1445;-87
2022/05/23 11:36:45;997860.00;3.33;1728.68;97516.00;0.33;169.28;;;;;21.20;7.30;;;;;;2284979;60;1643;-87
2022/05/23 11:39:48;706928.00;2.36;1219.25;89859.00;0.30;156.06;;;;;21.30;8.00;;;;;;2284904;60;1913;-88
2022/05/23 11:42:17;238902.00;0.80;412.86;0.00;0.00;0.62;;;;;21.40;7.20;;;;;;2284986;60;1017;-88
2022/05/23 11:48:01;116744.00;0.39;202.47;0.00;0.00;0.62;;;;;21.40;7.20;;;;;;2285207;60;708;-88
2022/05/23 11:50:31;702594.00;2.34;1211.74;180120.00;0.60;311.70;;;;;21.90;6.50;;;;;;2285196;60;1465;-87
2022/05/23 11:53:12;267925.00;0.89;462.78;0.00;0.00;0.62;;;;;22.40;3.60;;;;;;2285297;60;1453;-86
2022/05/23 11:56:05;71689.00;0.24;124.68;0.00;0.00;0.62;;;;;22.80;1.00;;;;;;2285337;60;956;-86
2022/05/23 11:58:56;900946.00;3.00;1557.78;134849.00;0.45;233.69;;;;;22.60;1.00;;;;;;2287408;55;3719;-88
2022/05/23 12:01:27;274757.00;0.92;474.52;31876.00;0.11;55.83;;;;;21.80;2.80;;;;;;2292098;55;3737;-87
2022/05/23 12:04:24;125546.00;0.42;217.65;13478.00;0.04;23.97;;;;;20.50;6.50;;;;;;2295657;40;3721;-89
2022/05/23 12:12:13;2022471.00;6.74;3670.57;252314.00;0.84;435.93;;;;;19.30;12.60;;;;;;2335455;40;3453;-87
2022/05/23 12:25:02;583179.00;1.94;1005.18;0.00;0.00;0.62;;;;;21.30;3.40;;;;;;2303488;55;3851;-90
2022/05/23 13:26:15;1259715.00;4.20;2198.57;45755.00;0.15;79.84;;;;;25.70;1.00;;;;;;2302473;40;3541;-89
2022/05/23 14:19:14;529861.00;1.77;913.25;0.00;0.00;0.62;;;;;27.80;1.00;;;;;;2362833;39;3580;-89
2022/05/23 14:21:41;204902.00;0.68;354.36;0.00;0.00;0.62;;;;;27.70;1.00;;;;;;2284781;60;1035;-89
2022/05/23 14:39:24;591102.00;1.97;1018.86;0.00;0.00;0.62;;;;;28.70;1.00;;;;;;2274066;61;1905;-88
2022/05/23 14:41:53;236133.00;0.79;408.10;21337.00;0.07;37.59;;;;;28.90;1.00;;;;;;2272369;61;1094;-90
2022/05/23 14:44:30;647413.00;2.16;1116.16;160101.00;0.53;277.21;;;;;28.40;1.00;;;;;;2275451;61;1385;-90
2022/05/23 14:47:05;1080189.00;3.60;1875.03;29360.00;0.10;51.48;;;;;27.90;1.00;;;;;;2276336;61;1889;-88
2022/05/23 14:49:36;820893.00;2.74;1417.59;105685.00;0.35;183.38;;;;;28.10;1.00;;;;;;2276228;61;1055;-88
2022/05/23 14:52:19;1088827.00;3.63;1890.45;88584.00;0.30;153.86;;;;;27.60;1.00;;;;;;2275948;61;1046;-88
2022/05/23 15:00:39;1423163.00;4.74;2499.35;71597.00;0.24;124.52;;;;;27.00;1.00;;;;;;2282889;40;3628;-89
2022/05/23 15:03:12;1138176.00;3.79;1978.83;141469.00;0.47;245.10;;;;;27.60;1.00;;;;;;2281405;60;1391;-88
2022/05/23 15:05:39;1517067.00;5.06;2675.28;82974.00;0.28;144.17;;;;;27.70;1.00;;;;;;2284500;60;1078;-86
2022/05/23 15:08:07;611345.00;2.04;1053.81;156267.00;0.52;270.61;;;;;27.40;1.00;;;;;;2284507;60;982;-87
2022/05/23 15:10:35;117973360.00;393.24;66509868.00;73625.00;0.25;128.02;;;;;27.30;1.00;;;;;;2284208;60;1212;-87
2022/05/23 15:13:04;308710.00;1.03;532.89;70595.00;0.24;122.79;;;;;27.50;1.00;;;;;;2284363;60;1350;-88
2022/05/23 15:15:32;303238.00;1.01;523.49;73288.00;0.24;127.44;;;;;27.60;1.00;;;;;;2284327;60;1639;-89
2022/05/23 15:17:59;181956.00;0.61;314.86;76054.00;0.25;132.22;;;;;27.70;1.00;;;;;;2284464;60;1096;-87
2022/05/23 15:20:27;200884.00;0.67;347.45;73700.00;0.25;128.15;;;;;27.20;1.00;;;;;;2284425;60;2004;-88
2022/05/23 15:22:54;298671.00;1.00;515.64;74288.00;0.25;129.17;;;;;26.90;1.00;;;;;;2284513;60;1277;-86
2022/05/23 15:27:56;725142.00;2.42;1250.87;53399.00;0.18;93.06;;;;;25.90;1.00;;;;;;2286005;60;1214;-89
2022/05/23 15:30:29;45556.00;0.15;79.50;0.00;0.00;0.62;;;;;25.10;1.00;;;;;;2284319;60;1557;-90
2022/05/23 15:32:57;179098.00;0.60;309.94;0.00;0.00;0.62;;;;;24.80;1.00;;;;;;2284399;60;1407;-89
2022/05/23 15:35:25;84670.00;0.28;147.10;0.00;0.00;0.62;;;;;25.20;1.00;;;;;;2284356;60;1096;-87
2022/05/23 15:37:52;59024.00;0.20;102.79;0.00;0.00;0.62;;;;;25.10;1.00;;;;;;2284326;60;2288;-90
2022/05/23 15:40:20;283794.00;0.95;490.06;43964.00;0.15;76.75;;;;;25.20;1.00;;;;;;2284184;60;1926;-87
2022/05/23 15:42:50;215976.00;0.72;373.42;22326.00;0.07;39.30;;;;;25.10;1.00;;;;;;2284202;60;1761;-87
2022/05/23 15:45:22;68702.00;0.23;119.52;0.00;0.00;0.62;;;;;25.10;1.00;;;;;;2284179;60;2243;-87
2022/05/23 15:47:50;632560.00;2.11;1090.47;116240.00;0.39;201.60;;;;;25.00;1.00;;;;;;2302435;39;3610;-89
2022/05/23 15:52:47;608804.00;2.03;1049.42;0.00;0.00;0.62;;;;;24.90;1.00;;;;;;2283019;60;1361;-88
2022/05/23 15:55:15;1227583.00;4.09;2140.17;120644.00;0.40;209.19;;;;;24.80;1.00;;;;;;2280799;60;1544;-90
2022/05/23 15:57:49;1221250.00;4.07;2128.69;72868.00;0.24;126.72;;;;;24.60;1.00;;;;;;2280876;60;1652;-90
2022/05/23 16:00:21;107316.00;0.36;186.20;0.00;0.00;0.62;;;;;24.60;1.00;;;;;;2280770;60;2017;-91
2022/05/23 16:07:48;663771.00;2.21;1144.47;0.00;0.00;0.62;;;;;24.70;1.00;;;;;;2287386;61;1163;-90
2022/05/23 16:10:15;273025.00;0.91;471.55;35593.00;0.12;62.26;;;;;24.70;1.00;;;;;;2285656;61;1815;-89
2022/05/23 16:12:47;106520.00;0.36;184.82;0.00;0.00;0.62;;;;;24.70;1.00;;;;;;2284890;60;1575;-87
2022/05/23 16:15:15;174659.00;0.58;302.29;0.00;0.00;0.62;;;;;24.70;1.00;;;;;;2284424;60;1562;-88
2022/05/23 16:17:50;121149.00;0.40;210.06;21921.00;0.07;38.60;;;;;24.60;1.00;;;;;;2284886;60;1541;-88
2022/05/23 16:20:19;0.00;0.00;0.62;0.00;0.00;0.62;;;;;24.40;1.00;;;;;;2284911;60;2000;-88
2022/05/23 16:25:16;119384544.00;397.95;68927504.00;0.00;0.00;0.62;;;;;23.80;1.00;;;;;;2282855;60;1363;-89
2022/05/23 16:38:13;267860.00;0.89;462.66;0.00;0.00;0.62;;;;;23.90;1.00;;;;;;2285039;60;706;-89
2022/05/23 16:40:40;104188.00;0.35;180.80;0.00;0.00;0.62;;;;;23.80;1.00;;;;;;2284840;60;1919;-87
2022/05/23 16:43:08;315371.00;1.05;544.34;0.00;0.00;0.62;;;;;23.80;1.00;;;;;;2284769;60;1543;-88
2022/05/23 16:48:10;430020.00;1.43;741.42;0.00;0.00;0.62;;;;;23.70;1.00;;;;;;2287416;61;1319;-91
2022/05/23 16:50:37;90900.00;0.30;157.86;0.00;0.00;0.62;;;;;23.50;1.00;;;;;;2301980;39;3776;-89
2022/05/23 16:53:04;901390.00;3.00;1558.56;31515.00;0.11;55.21;;;;;23.40;1.00;;;;;;2304135;40;3585;-89
2022/05/23 16:58:03;1157393.00;3.86;2013.37;53494.00;0.18;93.23;;;;;23.70;1.00;;;;;;2286466;60;1422;-88
2022/05/23 17:13:02;1925781.00;6.42;3473.02;45264.00;0.15;78.99;;;;;23.50;1.00;;;;;;2287267;61;1323;-89
2022/05/23 17:30:35;1287131.00;4.29;2248.57;0.00;0.00;0.62;;;;;23.90;1.00;;;;;;2281798;61;1263;-88
2022/05/23 17:38:00;754421.00;2.51;1301.75;0.00;0.00;0.62;;;;;23.80;1.00;;;;;;2281607;61;1420;-89
2022/05/23 17:40:29;337298.00;1.12;582.03;72883.00;0.24;126.74;;;;;23.70;1.00;;;;;;2280551;61;2001;-87
2022/05/23 17:45:27;1119877.00;3.73;1946.01;0.00;0.00;0.62;;;;;23.50;1.00;;;;;;2281995;61;1345;-90
2022/05/23 17:50:25;638689.00;2.13;1101.07;0.00;0.00;0.62;;;;;23.30;1.00;;;;;;2278591;61;1381;-89
2022/05/23 17:57:54;1441408.00;4.80;2533.35;108639.00;0.36;188.48;;;;;23.00;1.00;;;;;;2278809;61;1316;-91
2022/05/23 18:02:55;431745.00;1.44;744.39;25723.00;0.09;45.18;;;;;23.10;1.00;;;;;;2278226;61;1456;-88
2022/05/23 18:05:26;173063.00;0.58;299.54;47447.00;0.16;82.77;;;;;23.10;1.00;;;;;;2276395;61;1239;-89
2022/05/23 18:07:54;224921.00;0.75;388.81;0.00;0.00;0.62;;;;;23.30;1.00;;;;;;2276393;61;1046;-90
2022/05/23 18:10:21;0.00;0.00;0.62;0.00;0.00;0.62;;;;;23.40;1.00;;;;;;2276351;61;1759;-89
2022/05/23 18:12:48;3837.00;0.01;7.27;0.00;0.00;0.62;;;;;23.50;1.00;;;;;;2276400;61;1557;-89
2022/05/23 18:20:37;863309.00;2.88;1491.77;88391.00;0.29;153.53;;;;;23.50;1.00;;;;;;2278462;61;1978;-89
2022/05/23 18:23:04;180163.00;0.60;311.77;73354.00;0.24;127.56;;;;;23.70;1.00;;;;;;2276418;61;1554;-88
2022/05/23 18:25:31;245578.00;0.82;424.35;70307.00;0.23;122.29;;;;;23.80;1.00;;;;;;2282486;55;3755;-88
2022/05/23 18:27:58;32472.00;0.11;56.86;0.00;0.00;0.62;;;;;23.50;1.00;;;;;;2288684;60;1667;-89
2022/05/23 18:30:25;33211.00;0.11;58.14;0.00;0.00;0.62;;;;;23.20;1.00;;;;;;2288644;60;1734;-85
2022/05/23 18:32:53;89682.00;0.30;155.76;0.00;0.00;0.62;;;;;23.00;1.00;;;;;;2293624;39;3617;-87
2022/05/23 18:35:21;273049.00;0.91;471.59;0.00;0.00;0.62;;;;;22.60;1.00;;;;;;2284582;60;1597;-88
2022/05/23 18:37:49;0.00;0.00;0.62;0.00;0.00;0.62;;;;;22.60;1.00;;;;;;2284379;60;2084;-88
2022/05/23 18:45:16;897045.00;2.99;1550.93;139400.00;0.46;241.54;;;;;22.60;1.00;;;;;;2298037;55;3699;-88
2022/05/23 18:50:13;532792.00;1.78;918.30;0.00;0.00;0.62;;;;;22.80;1.00;;;;;;2282379;61;1327;-89
2022/05/23 18:52:41;55836.00;0.19;97.28;0.00;0.00;0.62;;;;;22.70;1.00;;;;;;2280361;61;1623;-88
2022/05/23 18:57:38;312490.00;1.04;539.39;0.00;0.00;0.62;;;;;22.60;1.00;;;;;;2290081;60;1229;-89
2022/05/23 19:00:08;115594.00;0.39;200.48;49441.00;0.16;86.22;;;;;22.50;1.00;;;;;;2295409;55;3738;-88
2022/05/23 19:02:38;136726.00;0.46;236.93;70359.00;0.23;122.38;;;;;22.50;1.00;;;;;;2284400;60;1938;-89
2022/05/23 19:05:06;175561.00;0.59;303.84;0.00;0.00;0.62;;;;;22.60;1.00;;;;;;2284532;60;1098;-88
2022/05/23 19:07:34;41188.00;0.14;71.94;0.00;0.00;0.62;;;;;22.70;1.00;;;;;;2284462;60;1953;-89
2022/05/23 19:10:01;31301.00;0.10;54.83;0.00;0.00;0.62;;;;;22.60;1.00;;;;;;2284456;60;1562;-89
2022/05/23 19:17:28;524415.00;1.75;903.87;73853.00;0.25;128.42;;;;;22.50;1.00;;;;;;2286318;60;1184;-90
2022/05/23 19:19:55;46808.00;0.16;81.67;0.00;0.00;0.62;;;;;22.40;1.00;;;;;;2284384;60;1769;-89
2022/05/23 19:24:51;189885.00;0.63;328.51;0.00;0.00;0.62;;;;;22.50;1.00;;;;;;2286107;60;1410;-89
2022/05/23 19:27:18;472948.00;1.58;815.26;65918.00;0.22;114.71;;;;;22.80;1.00;;;;;;2284891;60;1086;-89
2022/05/23 19:29:45;46492.00;0.15;81.12;0.00;0.00;0.62;;;;;23.10;1.00;;;;;;2285150;60;981;-89
2022/05/23 19:32:13;75839.00;0.25;131.85;0.00;0.00;0.62;;;;;23.00;1.00;;;;;;2285109;60;1574;-89
2022/05/23 19:34:42;10371.00;0.03;18.59;0.00;0.00;0.62;;;;;22.70;1.00;;;;;;2284974;60;1475;-89
2022/05/23 19:37:09;37801.00;0.13;66.08;0.00;0.00;0.62;;;;;22.90;1.00;;;;;;2285082;60;1562;-88
2022/05/23 19:39:39;12920.00;0.04;23.01;0.00;0.00;0.62;;;;;23.00;1.00;;;;;;2285181;60;2296;-88
2022/05/23 19:42:06;287642.00;0.96;496.68;89381.00;0.30;155.24;;;;;22.90;1.00;;;;;;2284841;60;1921;-90
2022/05/23 19:44:35;5498.00;0.02;10.15;0.00;0.00;0.62;;;;;22.70;1.00;;;;;;2285010;60;1754;-87
2022/05/23 19:47:02;228532.00;0.76;395.02;0.00;0.00;0.62;;;;;22.60;1.00;;;;;;2285104;60;1620;-89
2022/05/23 19:49:29;326758.00;1.09;563.91;17833.00;0.06;31.52;;;;;22.60;1.00;;;;;;2333982;40;3648;-87
2022/05/23 19:52:00;367155.00;1.22;633.35;108350.00;0.36;187.98;;;;;22.60;1.00;;;;;;2285075;60;1119;-88